createdAt,value
2018-05-11T00:01:33.171Z,6.90
2018-05-11T00:04:00.623Z,6.57
2018-05-11T00:06:28.053Z,6.30
2018-05-11T00:08:55.495Z,6.40
2018-05-11T00:11:22.934Z,5.67
2018-05-11T00:13:51.142Z,6.17
2018-05-11T00:16:19.342Z,6.03
2018-05-11T00:18:47.562Z,6.50
2018-05-11T00:21:14.998Z,5.67
2018-05-11T00:23:42.422Z,6.57
2018-05-11T00:26:09.864Z,5.80
2018-05-11T00:28:37.322Z,5.80
2018-05-11T00:31:04.746Z,5.30
2018-05-11T00:33:32.945Z,5.87
2018-05-11T00:36:00.377Z,6.03
2018-05-11T00:38:27.813Z,5.77
2018-05-11T00:40:56.036Z,6.00
2018-05-11T00:43:24.242Z,6.40
2018-05-11T00:45:51.681Z,5.17
2018-05-11T00:48:19.119Z,5.70
2018-05-11T00:50:46.550Z,4.87
2018-05-11T00:53:13.986Z,5.80
2018-05-11T00:55:50.322Z,5.53
2018-05-11T00:58:17.755Z,5.10
2018-05-11T01:00:45.195Z,5.70
2018-05-11T01:03:12.635Z,4.90
2018-05-11T01:05:40.079Z,5.23
2018-05-11T01:08:08.275Z,6.00
2018-05-11T01:10:36.482Z,6.10
2018-05-11T01:13:03.913Z,4.60
2018-05-11T01:15:31.363Z,5.23
2018-05-11T01:17:58.790Z,5.93
2018-05-11T01:20:26.241Z,6.50
2018-05-11T01:22:53.678Z,6.00
2018-05-11T01:25:21.889Z,6.20
2018-05-11T01:27:50.082Z,5.40
2018-05-11T01:30:18.295Z,6.50
2018-05-11T01:32:45.725Z,5.40
2018-05-11T01:35:13.165Z,4.47
2018-05-11T01:37:40.596Z,5.60
2018-05-11T01:40:08.054Z,5.60
2018-05-11T01:42:35.486Z,4.77
2018-05-11T01:45:03.699Z,6.47
2018-05-11T01:47:31.125Z,5.57
2018-05-11T01:49:59.335Z,5.33
2018-05-11T01:52:26.772Z,6.10
2018-05-11T01:54:54.209Z,5.40
2018-05-11T01:57:21.641Z,5.27
2018-05-11T01:59:49.064Z,5.20
2018-05-11T02:02:16.514Z,5.33
2018-05-11T02:04:43.950Z,5.70
2018-05-11T02:07:11.394Z,6.03
2018-05-11T02:09:38.826Z,6.07
2018-05-11T02:12:07.034Z,5.63
2018-05-11T02:14:34.466Z,5.77
2018-05-11T02:17:01.906Z,5.70
2018-05-11T02:19:29.337Z,5.53
2018-05-11T02:21:56.777Z,5.60
2018-05-11T02:24:24.209Z,6.10
2018-05-11T02:26:51.650Z,5.10
2018-05-11T02:29:19.091Z,5.60
2018-05-11T02:31:47.285Z,4.97
2018-05-11T02:34:15.485Z,6.40
2018-05-11T02:36:43.688Z,5.53
2018-05-11T02:39:11.897Z,5.40
2018-05-11T02:41:40.103Z,5.13
2018-05-11T02:44:07.546Z,5.90
2018-05-11T02:46:34.982Z,5.43
2018-05-11T02:49:02.415Z,5.00
2018-05-11T02:51:29.849Z,5.63
2018-05-11T02:53:57.273Z,4.90
2018-05-11T02:56:24.710Z,5.77
2018-05-11T02:58:52.145Z,6.43
2018-05-11T03:01:19.598Z,5.60
2018-05-11T03:03:47.041Z,5.00
2018-05-11T03:06:15.229Z,5.20
2018-05-11T03:08:43.430Z,5.03
2018-05-11T03:11:11.634Z,5.80
2018-05-11T03:13:39.830Z,5.57
2018-05-11T03:16:08.061Z,5.20
2018-05-11T03:18:35.537Z,5.00
2018-05-11T03:21:02.934Z,5.20
2018-05-11T03:23:30.366Z,5.50
2018-05-11T03:25:58.575Z,5.27
2018-05-11T03:28:26.770Z,5.13
2018-05-11T03:30:54.978Z,5.80
2018-05-11T03:33:23.177Z,5.80
2018-05-11T03:35:51.382Z,5.00
2018-05-11T03:38:19.587Z,5.20
2018-05-11T03:40:47.794Z,5.17
2018-05-11T03:43:15.216Z,5.37
2018-05-11T03:45:42.653Z,4.83
2018-05-11T03:48:10.854Z,5.00
2018-05-11T03:50:38.289Z,5.50
2018-05-11T03:53:05.726Z,5.50
2018-05-11T03:55:33.156Z,5.20
2018-05-11T03:58:00.598Z,5.80
2018-05-11T04:00:28.040Z,5.10
2018-05-11T04:03:07.230Z,6.00
2018-05-11T04:05:46.446Z,4.77
2018-05-11T04:08:25.898Z,5.87
2018-05-11T04:10:53.345Z,5.30
2018-05-11T04:13:20.782Z,5.00
2018-05-11T04:15:48.206Z,4.87
2018-05-11T04:18:16.467Z,4.93
2018-05-11T04:20:43.902Z,4.83
2018-05-11T04:23:11.405Z,5.37
2018-05-11T04:25:39.525Z,5.47
2018-05-11T04:28:06.966Z,5.80
2018-05-11T04:30:34.393Z,4.87
2018-05-11T04:33:02.593Z,5.33
2018-05-11T04:35:30.798Z,5.70
2018-05-11T04:37:59.006Z,5.53
2018-05-11T04:40:27.200Z,7.37
2018-05-11T04:42:55.414Z,5.50
2018-05-11T04:45:23.629Z,5.37
2018-05-11T04:47:51.805Z,5.67
2018-05-11T04:50:20.006Z,4.97
2018-05-11T04:52:48.218Z,5.00
2018-05-11T04:55:16.427Z,5.60
2018-05-11T04:57:43.857Z,5.40
2018-05-11T05:00:11.287Z,5.53
2018-05-11T05:02:38.731Z,5.37
2018-05-11T05:05:06.165Z,5.33
2018-05-11T05:07:33.605Z,5.70
2018-05-11T05:10:01.808Z,6.20
2018-05-11T05:12:30.076Z,5.13
2018-05-11T05:14:58.213Z,5.50
2018-05-11T05:17:26.422Z,5.30
2018-05-11T05:19:54.617Z,5.40
2018-05-11T05:22:22.826Z,5.83
2018-05-11T05:24:51.026Z,6.30
2018-05-11T05:27:19.220Z,5.97
2018-05-11T05:29:47.413Z,5.73
2018-05-11T05:32:15.619Z,5.80
2018-05-11T05:34:43.819Z,5.57
2018-05-11T05:37:12.029Z,6.03
2018-05-11T05:39:39.458Z,5.40
2018-05-11T05:42:06.901Z,5.63
2018-05-11T05:44:34.334Z,5.50
2018-05-11T05:47:01.774Z,5.90
2018-05-11T05:49:29.200Z,5.17
2018-05-11T05:51:56.700Z,6.37
2018-05-11T05:54:24.141Z,5.80
2018-05-11T05:56:52.281Z,5.40
2018-05-11T05:59:20.482Z,6.10
2018-05-11T06:01:48.696Z,6.60
2018-05-11T06:04:16.884Z,5.80
2018-05-11T06:06:45.100Z,7.87
2018-05-11T06:09:13.298Z,6.10
2018-05-11T06:11:40.729Z,7.50
2018-05-11T06:14:08.178Z,7.60
2018-05-11T06:16:35.608Z,7.83
2018-05-11T06:19:03.041Z,7.77
2018-05-11T06:21:30.477Z,8.63
2018-05-11T06:23:57.931Z,9.43
2018-05-11T06:26:25.363Z,7.87
2018-05-11T06:28:53.566Z,8.93
2018-05-11T06:31:20.998Z,9.57
2018-05-11T06:33:48.446Z,10.50
2018-05-11T06:36:15.877Z,10.10
2018-05-11T06:38:43.334Z,10.10
2018-05-11T06:41:10.765Z,10.83
2018-05-11T06:43:38.973Z,11.67
2018-05-11T06:46:06.520Z,32.20
2018-05-11T06:48:33.871Z,22.87
2018-05-11T06:51:01.305Z,22.70
2018-05-11T06:53:29.527Z,18.07
2018-05-11T06:55:56.988Z,17.53
2018-05-11T06:58:24.393Z,14.03
2018-05-11T07:00:51.834Z,12.30
2018-05-11T07:03:19.278Z,12.73
2018-05-11T07:05:46.718Z,12.00
2018-05-11T07:08:14.934Z,12.80
2018-05-11T07:10:42.374Z,13.70
2018-05-11T07:13:09.820Z,13.47
2018-05-11T07:15:37.258Z,13.67
2018-05-11T07:18:05.466Z,13.60
2018-05-11T07:20:32.914Z,14.67
2018-05-11T07:23:00.363Z,14.33
2018-05-11T07:25:28.575Z,14.33
2018-05-11T07:27:56.011Z,14.77
2018-05-11T07:32:58.033Z,15.07
2018-05-11T07:35:25.469Z,19.17
2018-05-11T07:37:52.925Z,16.30
2018-05-11T07:40:20.366Z,17.80
2018-05-11T07:42:48.574Z,20.23
2018-05-11T07:45:16.775Z,17.67
2018-05-11T07:47:44.981Z,20.07
2018-05-11T07:50:12.423Z,21.43
2018-05-11T07:52:39.870Z,20.80
2018-05-11T07:55:07.310Z,22.37
2018-05-11T07:57:35.522Z,23.60
2018-05-11T08:00:02.962Z,21.17
2018-05-11T08:02:30.414Z,21.47
2018-05-11T08:04:57.851Z,18.70
2018-05-11T08:07:26.050Z,19.10
2018-05-11T08:09:54.258Z,18.07
2018-05-11T08:12:22.459Z,18.97
2018-05-11T08:14:50.666Z,18.47
2018-05-11T08:17:18.106Z,19.50
2018-05-11T08:19:45.554Z,19.87
2018-05-11T08:22:12.993Z,20.87
2018-05-11T08:24:41.201Z,19.07
2018-05-11T08:27:08.637Z,19.47
2018-05-11T08:29:36.086Z,18.37
2018-05-11T08:32:03.538Z,20.50
2018-05-11T08:34:31.750Z,19.57
2018-05-11T08:36:59.190Z,19.27
2018-05-11T08:39:26.634Z,17.87
2018-05-11T08:41:54.074Z,17.73
2018-05-11T08:44:22.300Z,15.10
2018-05-11T08:46:49.743Z,16.97
2018-05-11T08:49:17.187Z,19.23
2018-05-11T08:51:44.627Z,19.07
2018-05-11T08:54:12.847Z,19.60
2018-05-11T08:56:40.298Z,17.53
2018-05-11T08:59:07.729Z,17.60
2018-05-11T09:01:35.166Z,17.40
2018-05-11T09:04:02.622Z,17.13
2018-05-11T09:06:30.054Z,15.80
2018-05-11T09:08:57.501Z,15.33
2018-05-11T09:11:24.948Z,15.03
2018-05-11T09:13:52.403Z,14.90
2018-05-11T09:16:19.838Z,15.10
2018-05-11T09:18:47.291Z,14.17
2018-05-11T09:21:14.727Z,13.83
2018-05-11T09:23:42.938Z,15.20
2018-05-11T09:26:11.142Z,15.43
2018-05-11T09:28:38.586Z,14.00
2018-05-11T09:31:06.026Z,13.57
2018-05-11T09:33:33.469Z,13.67
2018-05-11T09:36:01.682Z,12.33
2018-05-11T09:38:29.133Z,12.80
2018-05-11T09:40:56.578Z,12.37
2018-05-11T09:43:24.019Z,11.37
2018-05-11T09:45:51.456Z,12.87
2018-05-11T09:48:18.897Z,14.83
2018-05-11T09:50:46.346Z,13.43
2018-05-11T09:53:14.553Z,11.90
2018-05-11T09:55:42.766Z,13.47
2018-05-11T09:58:10.976Z,14.07
2018-05-11T10:00:38.413Z,14.13
2018-05-11T10:03:05.862Z,14.10
2018-05-11T10:05:33.318Z,13.10
2018-05-11T10:08:00.764Z,12.33
2018-05-11T10:10:28.198Z,12.70
2018-05-11T10:12:55.642Z,13.10
2018-05-11T10:15:23.951Z,10.57
2018-05-11T10:17:52.142Z,12.90
2018-05-11T10:20:20.359Z,11.30
2018-05-11T10:22:47.799Z,12.23
2018-05-11T10:25:15.242Z,11.20
2018-05-11T10:27:42.686Z,13.00
2018-05-11T10:32:44.851Z,10.53
2018-05-11T10:35:12.294Z,11.07
2018-05-11T10:37:40.510Z,11.87
2018-05-11T10:40:07.966Z,11.37
2018-05-11T10:42:35.423Z,12.50
2018-05-11T10:45:02.846Z,13.90
2018-05-11T10:47:31.056Z,13.50
2018-05-11T10:49:58.514Z,13.57
2018-05-11T10:52:26.722Z,14.60
2018-05-11T10:54:54.944Z,15.40
2018-05-11T10:57:22.382Z,15.73
2018-05-11T10:59:49.830Z,13.37
2018-05-11T11:02:17.342Z,14.00
2018-05-11T11:04:45.476Z,13.67
2018-05-11T11:07:12.915Z,14.43
2018-05-11T11:09:40.367Z,16.60
2018-05-11T11:12:07.834Z,16.10
2018-05-11T11:14:35.290Z,15.47
2018-05-11T11:17:03.494Z,15.47
2018-05-11T11:19:31.702Z,15.27
2018-05-11T11:21:59.150Z,14.60
2018-05-11T11:24:26.607Z,15.20
2018-05-11T11:26:54.050Z,14.70
2018-05-11T11:29:21.485Z,15.67
2018-05-11T11:31:48.926Z,16.17
2018-05-11T11:34:16.409Z,13.93
2018-05-11T11:36:44.581Z,14.83
2018-05-11T11:39:12.790Z,15.10
2018-05-11T11:41:40.230Z,13.20
2018-05-11T11:44:07.695Z,15.97
2018-05-11T11:46:35.134Z,15.40
2018-05-11T11:49:02.577Z,17.00
2018-05-11T11:51:30.018Z,16.43
2018-05-11T11:53:57.462Z,14.63
2018-05-11T11:56:24.940Z,15.63
2018-05-11T11:58:52.350Z,14.53
2018-05-11T12:01:19.789Z,14.63
2018-05-11T12:03:48.009Z,16.10
2018-05-11T12:06:16.222Z,15.17
2018-05-11T12:08:43.653Z,17.17
2018-05-11T12:11:11.103Z,17.00
2018-05-11T12:13:38.546Z,18.93
2018-05-11T12:16:06.755Z,17.57
2018-05-11T12:18:34.201Z,16.90
2018-05-11T12:21:01.649Z,15.30
2018-05-11T12:23:29.075Z,15.80
2018-05-11T12:25:57.281Z,18.07
2018-05-11T12:28:25.486Z,17.00
2018-05-11T12:30:53.703Z,17.43
2018-05-11T12:33:21.134Z,17.90
2018-05-11T12:35:48.578Z,16.97
2018-05-11T12:38:16.009Z,16.27
2018-05-11T12:40:43.466Z,18.30
2018-05-11T12:43:10.922Z,17.07
2018-05-11T12:45:38.379Z,16.10
2018-05-11T12:48:05.815Z,18.53
2018-05-11T12:50:33.258Z,16.47
2018-05-11T12:53:00.702Z,18.33
2018-05-11T12:55:28.905Z,18.60
2018-05-11T12:57:57.114Z,17.00
2018-05-11T13:00:25.330Z,16.87
2018-05-11T13:02:52.765Z,17.23
2018-05-11T13:05:20.218Z,16.57
2018-05-11T13:07:47.653Z,20.30
2018-05-11T13:10:15.870Z,19.50
2018-05-11T13:12:43.302Z,20.70
2018-05-11T13:15:10.750Z,24.03
2018-05-11T13:17:38.186Z,20.97
2018-05-11T13:20:06.401Z,17.17
2018-05-11T13:22:33.833Z,16.93
2018-05-11T13:25:01.282Z,18.73
2018-05-11T13:27:28.721Z,17.03
2018-05-11T13:29:56.167Z,16.10
2018-05-11T13:32:23.596Z,18.97
2018-05-11T13:34:51.828Z,18.13
2018-05-11T13:37:19.270Z,17.73
2018-05-11T13:39:46.715Z,19.40
2018-05-11T13:42:14.251Z,17.93
2018-05-11T13:44:41.605Z,18.33
2018-05-11T13:47:09.054Z,17.60
2018-05-11T13:49:36.485Z,17.90
2018-05-11T13:52:04.697Z,19.07
2018-05-11T13:54:32.129Z,17.97
2018-05-11T13:56:59.582Z,18.40
2018-05-11T13:59:27.018Z,17.20
2018-05-11T14:01:54.457Z,17.97
2018-05-11T14:04:21.905Z,17.40
2018-05-11T14:06:50.126Z,17.30
2018-05-11T14:09:17.562Z,17.20
2018-05-11T14:11:45.005Z,18.50
2018-05-11T14:14:12.454Z,16.63
2018-05-11T14:16:39.914Z,18.70
2018-05-11T14:19:08.109Z,18.20
2018-05-11T14:21:36.330Z,18.50
2018-05-11T14:24:03.771Z,17.53
2018-05-11T14:26:31.218Z,16.70
2018-05-11T14:28:58.654Z,17.73
2018-05-11T14:31:26.865Z,17.00
2018-05-11T14:33:55.073Z,17.47
2018-05-11T14:36:22.526Z,18.00
2018-05-11T14:38:49.953Z,17.30
2018-05-11T14:41:17.405Z,15.90
2018-05-11T14:43:45.612Z,17.53
2018-05-11T14:46:13.827Z,19.80
2018-05-11T14:48:41.266Z,18.60
2018-05-11T14:51:08.697Z,16.77
2018-05-11T14:53:36.134Z,16.03
2018-05-11T14:56:04.354Z,16.50
2018-05-11T14:58:31.785Z,16.00
2018-05-11T15:00:59.229Z,17.30
2018-05-11T15:03:26.674Z,15.30
2018-05-11T15:05:54.122Z,15.43
2018-05-11T15:08:21.561Z,16.87
2018-05-11T15:10:49.010Z,16.50
2018-05-11T15:13:16.458Z,17.03
2018-05-11T15:15:43.914Z,16.03
2018-05-11T15:18:11.362Z,16.77
2018-05-11T15:20:39.569Z,17.63
2018-05-11T15:23:07.773Z,16.17
2018-05-11T15:25:35.997Z,16.73
2018-05-11T15:28:03.434Z,17.77
2018-05-11T15:30:30.879Z,18.23
2018-05-11T15:32:58.330Z,18.73
2018-05-11T15:35:25.761Z,17.93
2018-05-11T15:37:53.205Z,18.07
2018-05-11T15:40:20.704Z,18.10
2018-05-11T15:42:48.853Z,16.20
2018-05-11T15:45:17.068Z,17.20
2018-05-11T15:47:44.510Z,16.00
2018-05-11T15:50:11.955Z,15.60
2018-05-11T15:52:39.408Z,16.20
2018-05-11T15:55:06.850Z,14.80
2018-05-11T15:57:34.306Z,16.23
2018-05-11T16:00:01.747Z,17.47
2018-05-11T16:02:29.194Z,14.30
2018-05-11T16:04:56.635Z,16.30
2018-05-11T16:07:24.078Z,16.50
2018-05-11T16:09:52.282Z,16.90
2018-05-11T16:12:20.502Z,16.70
2018-05-11T16:14:47.942Z,16.90
2018-05-11T16:17:15.386Z,19.07
2018-05-11T16:19:42.832Z,15.87
2018-05-11T16:22:11.046Z,16.97
2018-05-11T16:24:38.490Z,17.27
2018-05-11T16:27:05.941Z,17.60
2018-05-11T16:29:33.368Z,16.80
2018-05-11T16:32:01.592Z,18.43
2018-05-11T16:34:29.021Z,18.20
2018-05-11T16:36:56.471Z,18.23
2018-05-11T16:39:23.907Z,20.50
2018-05-11T16:41:51.353Z,19.57
2018-05-11T16:44:18.794Z,18.70
2018-05-11T16:46:46.238Z,16.40
2018-05-11T16:49:13.673Z,18.10
2018-05-11T16:51:41.117Z,18.87
2018-05-11T16:54:09.330Z,16.87
2018-05-11T16:56:37.539Z,18.00
2018-05-11T16:59:04.982Z,17.30
2018-05-11T17:01:32.438Z,16.00
2018-05-11T17:03:59.870Z,18.83
2018-05-11T17:06:28.078Z,15.90
2018-05-11T17:08:55.522Z,18.27
2018-05-11T17:11:22.973Z,15.80
2018-05-11T17:13:50.422Z,16.00
2018-05-11T17:16:18.631Z,15.87
2018-05-11T17:18:46.070Z,16.70
2018-05-11T17:21:13.910Z,17.80
2018-05-11T17:23:41.345Z,17.30
2018-05-11T17:26:09.106Z,18.77
2018-05-11T17:28:36.563Z,18.40
2018-05-11T17:31:04.011Z,17.70
2018-05-11T17:33:32.223Z,17.63
2018-05-11T17:35:59.669Z,16.80
2018-05-11T17:38:27.110Z,19.20
2018-05-11T17:40:54.554Z,18.93
2018-05-11T17:43:22.770Z,18.67
2018-05-11T17:45:50.222Z,17.90
2018-05-11T17:48:17.677Z,18.47
2018-05-11T17:50:45.115Z,18.43
2018-05-11T17:53:12.561Z,19.10
2018-05-11T17:55:39.997Z,19.77
2018-05-11T17:58:08.323Z,16.40
2018-05-11T18:00:35.741Z,17.20
2018-05-11T18:03:03.969Z,17.17
2018-05-11T18:05:31.398Z,15.07
2018-05-11T18:07:58.855Z,15.90
2018-05-11T18:10:26.299Z,15.70
2018-05-11T18:12:53.747Z,14.00
2018-05-11T18:15:21.183Z,14.77
2018-05-11T18:17:48.629Z,14.17
2018-05-11T18:20:16.850Z,13.03
2018-05-11T18:22:45.045Z,12.67
2018-05-11T18:25:12.493Z,12.90
2018-05-11T18:27:39.951Z,13.20
2018-05-11T18:30:07.388Z,11.83
2018-05-11T18:32:34.828Z,11.70
2018-05-11T18:35:02.271Z,11.77
2018-05-11T18:37:29.722Z,12.07
2018-05-11T18:39:57.930Z,13.00
2018-05-11T18:42:25.370Z,14.23
2018-05-11T18:44:52.812Z,13.87
2018-05-11T18:47:20.257Z,12.30
2018-05-11T18:49:48.457Z,13.63
2018-05-11T18:52:16.669Z,14.13
2018-05-11T18:54:44.972Z,14.83
2018-05-11T18:57:12.318Z,14.30
2018-05-11T18:59:41.274Z,15.00
2018-05-11T19:02:08.707Z,15.03
2018-05-11T19:04:36.159Z,13.97
2018-05-11T19:07:03.597Z,14.80
2018-05-11T19:09:31.818Z,14.67
2018-05-11T19:11:59.245Z,13.97
2018-05-11T19:14:26.701Z,15.40
2018-05-11T19:16:54.146Z,14.70
2018-05-11T19:19:21.589Z,14.27
2018-05-11T19:21:49.025Z,16.60
2018-05-11T19:24:16.465Z,16.70
2018-05-11T19:26:43.911Z,17.57
2018-05-11T19:29:11.351Z,17.20
2018-05-11T19:31:39.558Z,15.57
2018-05-11T19:34:07.829Z,15.97
2018-05-11T19:36:35.270Z,15.67
2018-05-11T19:39:02.714Z,15.80
2018-05-11T19:41:30.927Z,16.87
2018-05-11T19:43:59.143Z,16.07
2018-05-11T19:46:26.587Z,17.77
2018-05-11T19:48:54.034Z,16.00
2018-05-11T19:51:21.469Z,15.40
2018-05-11T19:53:49.681Z,17.20
2018-05-11T19:56:17.122Z,17.67
2018-05-11T19:58:44.577Z,17.20
2018-05-11T20:01:12.012Z,16.23
2018-05-11T20:03:39.458Z,19.20
2018-05-11T20:06:06.900Z,18.83
2018-05-11T20:08:34.342Z,16.37
2018-05-11T20:11:01.919Z,17.60
2018-05-11T20:13:29.236Z,18.40
2018-05-11T20:15:56.669Z,19.40
2018-05-11T20:18:24.113Z,19.77
2018-05-11T20:20:51.562Z,18.47
2018-05-11T20:23:19.774Z,17.50
2018-05-11T20:25:47.978Z,19.43
2018-05-11T20:28:15.421Z,20.23
2018-05-11T20:30:42.861Z,18.03
2018-05-11T20:33:10.303Z,19.80
2018-05-11T20:35:38.506Z,17.77
2018-05-11T20:38:06.723Z,18.00
2018-05-11T20:40:34.158Z,18.03
2018-05-11T20:43:01.606Z,19.73
2018-05-11T20:45:29.046Z,21.23
2018-05-11T20:47:57.261Z,19.07
2018-05-11T20:50:25.461Z,20.37
2018-05-11T20:52:53.671Z,20.27
2018-05-11T20:55:21.886Z,20.80
2018-05-11T20:57:49.399Z,19.50
2018-05-11T21:00:16.770Z,19.67
2018-05-11T21:02:44.211Z,21.10
2018-05-11T21:05:11.664Z,21.10
2018-05-11T21:07:39.099Z,18.93
2018-05-11T21:10:06.541Z,19.97
2018-05-11T21:12:33.983Z,18.17
2018-05-11T21:15:01.429Z,21.37
2018-05-11T21:17:29.635Z,19.50
2018-05-11T21:19:57.862Z,20.13
2018-05-11T21:22:25.302Z,20.20
2018-05-11T21:24:52.746Z,19.53
2018-05-11T21:27:20.202Z,22.47
2018-05-11T21:29:48.401Z,21.97
2018-05-11T21:32:15.843Z,21.20
2018-05-11T21:34:43.291Z,21.77
2018-05-11T21:37:10.731Z,21.47
2018-05-11T21:39:38.962Z,19.60
2018-05-11T21:42:06.402Z,19.97
2018-05-11T21:44:34.609Z,21.60
2018-05-11T21:47:02.818Z,20.87
2018-05-11T21:49:31.021Z,20.10
2018-05-11T21:51:58.457Z,20.27
2018-05-11T21:54:25.894Z,21.10
2018-05-11T21:56:53.337Z,20.27
2018-05-11T21:59:20.782Z,21.33
2018-05-11T22:01:48.227Z,20.93
2018-05-11T22:04:15.680Z,21.60
2018-05-11T22:06:43.124Z,21.03
2018-05-11T22:09:10.561Z,19.63
2018-05-11T22:11:38.774Z,19.60
2018-05-11T22:14:06.218Z,19.80
2018-05-11T22:16:33.658Z,20.23
2018-05-11T22:19:01.098Z,20.80
2018-05-11T22:21:29.301Z,19.30
2018-05-11T22:23:57.510Z,20.53
2018-05-11T22:26:24.951Z,20.20
2018-05-11T22:28:52.401Z,21.30
2018-05-11T22:31:19.842Z,19.80
2018-05-11T22:33:48.045Z,21.50
2018-05-11T22:36:16.250Z,19.80
2018-05-11T22:38:44.453Z,20.70
2018-05-11T22:41:11.894Z,21.47
2018-05-11T22:43:39.335Z,20.43
2018-05-11T22:46:06.786Z,18.93
2018-05-11T22:48:34.985Z,18.60
2018-05-11T22:51:03.199Z,18.80
2018-05-11T22:53:31.397Z,18.60
2018-05-11T22:55:59.610Z,20.50
2018-05-11T22:58:27.045Z,21.40
2018-05-11T23:00:54.486Z,21.40
2018-05-11T23:03:21.926Z,20.77
2018-05-11T23:05:50.246Z,20.77
2018-05-11T23:08:18.447Z,21.00
2018-05-11T23:10:46.659Z,19.20
2018-05-11T23:13:14.089Z,20.90
2018-05-11T23:15:42.302Z,21.40
2018-05-11T23:18:09.733Z,20.57
2018-05-11T23:20:37.174Z,21.20
2018-05-11T23:23:04.614Z,19.80
2018-05-11T23:25:32.053Z,18.70
2018-05-11T23:28:00.263Z,20.53
2018-05-11T23:30:28.477Z,19.60
2018-05-11T23:32:55.909Z,18.70
2018-05-11T23:35:23.349Z,19.03
2018-05-11T23:37:50.799Z,19.50
2018-05-11T23:40:18.238Z,19.30
2018-05-11T23:42:45.679Z,20.30
2018-05-11T23:45:13.891Z,21.10
2018-05-11T23:47:41.328Z,21.23
2018-05-11T23:50:08.770Z,19.37
2018-05-11T23:52:36.205Z,18.57
2018-05-11T23:55:03.658Z,18.77
2018-05-11T23:57:31.857Z,18.37
2018-05-11T23:59:59.302Z,17.47
